sensor_id;sensor_type;location;lat;lon;timestamp;pressure;altitude;pressure_sealevel;temperature;humidity
52291;BME280;39663;45.432;28.050;2022-09-24T00:09:06;101389.11;;;18.01;32.06
52291;BME280;39663;45.432;28.050;2022-09-24T00:09:38;101388.97;;;18.00;32.08
52291;BME280;39663;45.432;28.050;2022-09-24T00:10:09;101388.30;;;18.28;32.05
52291;BME280;39663;45.432;28.050;2022-09-24T00:10:42;101386.78;;;18.06;31.96
52291;BME280;39663;45.432;28.050;2022-09-24T00:11:15;101392.14;;;18.08;32.22
52291;BME280;39663;45.432;28.050;2022-09-24T00:11:47;101392.73;;;17.86;32.21
52291;BME280;39663;45.432;28.050;2022-09-24T00:12:18;101390.08;;;17.76;32.34
52291;BME280;39663;45.432;28.050;2022-09-24T00:12:50;101390.98;;;17.79;32.33
52291;BME280;39663;45.432;28.050;2022-09-24T00:13:22;101388.63;;;18.01;32.25
52291;BME280;39663;45.432;28.050;2022-09-24T00:13:55;101386.62;;;17.96;32.03
52291;BME280;39663;45.432;28.050;2022-09-24T00:14:27;101385.00;;;18.12;31.95
52291;BME280;39663;45.432;28.050;2022-09-24T00:14:59;101383.73;;;17.89;31.94
52291;BME280;39663;45.432;28.050;2022-09-24T00:15:30;101384.34;;;18.26;32.02
52291;BME280;39663;45.432;28.050;2022-09-24T00:16:04;101383.31;;;18.20;31.85
52291;BME280;39663;45.432;28.050;2022-09-24T00:16:36;101382.89;;;18.23;31.75
52291;BME280;39663;45.432;28.050;2022-09-24T00:17:09;101381.95;;;18.17;31.78
52291;BME280;39663;45.432;28.050;2022-09-24T00:17:40;101383.73;;;18.20;32.24
52291;BME280;39663;45.432;28.050;2022-09-24T00:18:14;101380.26;;;17.96;32.10
52291;BME280;39663;45.432;28.050;2022-09-24T00:18:46;101382.32;;;17.68;32.42
52291;BME280;39663;45.432;28.050;2022-09-24T00:19:18;101381.22;;;17.74;32.40
52291;BME280;39663;45.432;28.050;2022-09-24T00:19:49;101376.63;;;17.91;32.10
52291;BME280;39663;45.432;28.050;2022-09-24T00:20:20;101375.89;;;18.02;32.04
52291;BME280;39663;45.432;28.050;2022-09-24T00:20:52;101375.21;;;18.29;32.10
52291;BME280;39663;45.432;28.050;2022-09-24T00:21:26;101375.27;;;18.39;31.81
52291;BME280;39663;45.432;28.050;2022-09-24T00:21:58;101377.99;;;18.26;31.81
52291;BME280;39663;45.432;28.050;2022-09-24T00:22:31;101377.26;;;18.14;31.90
52291;BME280;39663;45.432;28.050;2022-09-24T00:23:03;101378.06;;;17.75;32.24
52291;BME280;39663;45.432;28.050;2022-09-24T00:23:35;101376.73;;;18.05;32.13
52291;BME280;39663;45.432;28.050;2022-09-24T00:24:09;101378.19;;;18.22;31.91
52291;BME280;39663;45.432;28.050;2022-09-24T00:24:42;101375.88;;;18.16;31.93
52291;BME280;39663;45.432;28.050;2022-09-24T00:25:13;101376.17;;;18.06;32.03
52291;BME280;39663;45.432;28.050;2022-09-24T00:25:45;101375.88;;;18.21;31.89
52291;BME280;39663;45.432;28.050;2022-09-24T00:26:17;101377.94;;;18.30;31.80
52291;BME280;39663;45.432;28.050;2022-09-24T00:26:49;101377.85;;;18.36;31.73
52291;BME280;39663;45.432;28.050;2022-09-24T00:27:20;101377.00;;;18.25;31.57
52291;BME280;39663;45.432;28.050;2022-09-24T00:27:52;101377.55;;;18.46;31.56
52291;BME280;39663;45.432;28.050;2022-09-24T00:28:23;101375.80;;;18.52;31.48
52291;BME280;39663;45.432;28.050;2022-09-24T00:28:55;101377.18;;;18.53;31.42
52291;BME280;39663;45.432;28.050;2022-09-24T00:29:26;101375.15;;;18.59;31.33
52291;BME280;39663;45.432;28.050;2022-09-24T00:29:58;101372.90;;;18.52;31.51
52291;BME280;39663;45.432;28.050;2022-09-24T00:30:29;101374.29;;;18.54;31.47
52291;BME280;39663;45.432;28.050;2022-09-24T00:31:04;101373.39;;;18.64;31.42
52291;BME280;39663;45.432;28.050;2022-09-24T00:31:36;101373.46;;;18.66;31.32
52291;BME280;39663;45.432;28.050;2022-09-24T00:32:08;101373.67;;;18.64;31.27
52291;BME280;39663;45.432;28.050;2022-09-24T00:32:39;101373.72;;;18.34;31.42
52291;BME280;39663;45.432;28.050;2022-09-24T00:33:11;101373.96;;;18.44;31.60
52291;BME280;39663;45.432;28.050;2022-09-24T00:33:42;101375.68;;;18.21;31.57
52291;BME280;39663;45.432;28.050;2022-09-24T00:34:14;101374.73;;;18.51;31.49
52291;BME280;39663;45.432;28.050;2022-09-24T00:34:45;101372.64;;;18.17;31.84
52291;BME280;39663;45.432;28.050;2022-09-24T00:35:17;101371.92;;;18.14;31.97
52291;BME280;39663;45.432;28.050;2022-09-24T00:35:48;101376.62;;;17.85;32.87
52291;BME280;39663;45.432;28.050;2022-09-24T00:36:20;101374.28;;;17.92;32.32
52291;BME280;39663;45.432;28.050;2022-09-24T00:36:52;101375.25;;;17.72;32.56
52291;BME280;39663;45.432;28.050;2022-09-24T00:37:23;101377.47;;;17.66;32.77
52291;BME280;39663;45.432;28.050;2022-09-24T00:37:55;101378.21;;;17.70;32.67
52291;BME280;39663;45.432;28.050;2022-09-24T00:38:27;101379.84;;;17.63;32.81
52291;BME280;39663;45.432;28.050;2022-09-24T00:38:59;101378.95;;;17.61;32.90
52291;BME280;39663;45.432;28.050;2022-09-24T00:39:30;101377.97;;;17.75;32.61
52291;BME280;39663;45.432;28.050;2022-09-24T00:40:02;101376.48;;;18.07;32.39
52291;BME280;39663;45.432;28.050;2022-09-24T00:40:35;101375.38;;;17.85;32.23
52291;BME280;39663;45.432;28.050;2022-09-24T00:41:07;101376.33;;;17.94;32.16
52291;BME280;39663;45.432;28.050;2022-09-24T00:41:39;101375.48;;;17.82;32.16
52291;BME280;39663;45.432;28.050;2022-09-24T00:42:11;101375.55;;;17.88;32.39
52291;BME280;39663;45.432;28.050;2022-09-24T00:42:43;101375.88;;;17.78;32.50
52291;BME280;39663;45.432;28.050;2022-09-24T00:43:23;101377.02;;;17.86;32.45
52291;BME280;39663;45.432;28.050;2022-09-24T00:43:56;101378.08;;;17.67;32.59
52291;BME280;39663;45.432;28.050;2022-09-24T00:44:51;101374.10;;;17.87;32.37
52291;BME280;39663;45.432;28.050;2022-09-24T00:45:24;101371.23;;;18.22;31.89
52291;BME280;39663;45.432;28.050;2022-09-24T00:46:03;101371.15;;;18.25;31.81
52291;BME280;39663;45.432;28.050;2022-09-24T00:46:40;101370.05;;;18.13;31.98
52291;BME280;39663;45.432;28.050;2022-09-24T00:47:14;101368.41;;;17.88;32.24
52291;BME280;39663;45.432;28.050;2022-09-24T00:47:48;101367.48;;;17.84;32.41
52291;BME280;39663;45.432;28.050;2022-09-24T00:48:20;101366.55;;;17.90;32.32
52291;BME280;39663;45.432;28.050;2022-09-24T00:48:55;101368.89;;;17.76;32.43
52291;BME280;39663;45.432;28.050;2022-09-24T00:49:28;101369.16;;;17.82;32.44
52291;BME280;39663;45.432;28.050;2022-09-24T00:50:08;101367.33;;;18.02;32.17
52291;BME280;39663;45.432;28.050;2022-09-24T00:50:40;101368.44;;;18.00;32.12
52291;BME280;39663;45.432;28.050;2022-09-24T00:51:14;101366.66;;;17.76;32.19
52291;BME280;39663;45.432;28.050;2022-09-24T00:51:50;101368.00;;;18.06;32.11
52291;BME280;39663;45.432;28.050;2022-09-24T00:52:22;101367.28;;;18.14;32.00
52291;BME280;39663;45.432;28.050;2022-09-24T00:52:57;101366.08;;;18.08;31.86
52291;BME280;39663;45.432;28.050;2022-09-24T00:53:29;101369.06;;;18.86;31.70
52291;BME280;39663;45.432;28.050;2022-09-24T00:54:04;101369.16;;;18.47;31.61
52291;BME280;39663;45.432;28.050;2022-09-24T00:54:36;101368.79;;;18.56;31.68
52291;BME280;39663;45.432;28.050;2022-09-24T00:55:09;101370.49;;;18.21;31.72
52291;BME280;39663;45.432;28.050;2022-09-24T00:55:44;101367.69;;;18.23;31.88
52291;BME280;39663;45.432;28.050;2022-09-24T00:56:19;101370.13;;;18.33;31.87
52291;BME280;39663;45.432;28.050;2022-09-24T00:56:51;101371.48;;;18.17;31.80
52291;BME280;39663;45.432;28.050;2022-09-24T00:57:24;101369.19;;;18.43;31.72
52291;BME280;39663;45.432;28.050;2022-09-24T00:57:58;101369.18;;;18.39;31.72
52291;BME280;39663;45.432;28.050;2022-09-24T00:58:30;101367.78;;;18.40;31.68
52291;BME280;39663;45.432;28.050;2022-09-24T00:59:03;101365.85;;;18.27;31.85
52291;BME280;39663;45.432;28.050;2022-09-24T00:59:36;101366.97;;;18.21;31.86
52291;BME280;39663;45.432;28.050;2022-09-24T01:00:09;101367.07;;;18.28;31.83
52291;BME280;39663;45.432;28.050;2022-09-24T01:00:41;101368.22;;;18.36;31.67
52291;BME280;39663;45.432;28.050;2022-09-24T01:01:13;101365.62;;;18.27;31.81
52291;BME280;39663;45.432;28.050;2022-09-24T01:02:00;101363.44;;;18.30;31.86
52291;BME280;39663;45.432;28.050;2022-09-24T01:02:32;101362.53;;;18.26;31.85
52291;BME280;39663;45.432;28.050;2022-09-24T01:03:07;101361.13;;;18.23;31.84
52291;BME280;39663;45.432;28.050;2022-09-24T01:03:39;101361.01;;;18.32;31.79
52291;BME280;39663;45.432;28.050;2022-09-24T01:04:13;101359.62;;;18.12;31.79
52291;BME280;39663;45.432;28.050;2022-09-24T01:04:46;101360.68;;;18.25;31.82
52291;BME280;39663;45.432;28.050;2022-09-24T01:05:17;101359.87;;;18.05;32.25
52291;BME280;39663;45.432;28.050;2022-09-24T01:05:49;101361.77;;;17.87;32.45
52291;BME280;39663;45.432;28.050;2022-09-24T01:06:21;101361.29;;;17.75;32.62
52291;BME280;39663;45.432;28.050;2022-09-24T01:06:52;101364.04;;;17.24;33.12
52291;BME280;39663;45.432;28.050;2022-09-24T01:07:24;101362.91;;;17.07;33.37
52291;BME280;39663;45.432;28.050;2022-09-24T01:07:56;101365.97;;;16.74;33.83
52291;BME280;39663;45.432;28.050;2022-09-24T01:08:27;101365.48;;;16.91;33.81
52291;BME280;39663;45.432;28.050;2022-09-24T01:08:59;101366.74;;;16.67;33.95
52291;BME280;39663;45.432;28.050;2022-09-24T01:09:30;101367.13;;;16.71;33.94
52291;BME280;39663;45.432;28.050;2022-09-24T01:10:03;101368.32;;;16.67;33.95
52291;BME280;39663;45.432;28.050;2022-09-24T01:10:47;101365.60;;;16.73;33.93
52291;BME280;39663;45.432;28.050;2022-09-24T01:11:34;101365.83;;;16.60;34.14
52291;BME280;39663;45.432;28.050;2022-09-24T01:12:13;101366.43;;;16.95;33.96
52291;BME280;39663;45.432;28.050;2022-09-24T01:12:54;101366.32;;;16.72;33.93
52291;BME280;39663;45.432;28.050;2022-09-24T01:13:36;101364.69;;;16.85;33.81
52291;BME280;39663;45.432;28.050;2022-09-24T01:14:35;101360.28;;;16.96;33.82
52291;BME280;39663;45.432;28.050;2022-09-24T01:15:17;101359.44;;;17.30;33.39
52291;BME280;39663;45.432;28.050;2022-09-24T01:15:56;101360.46;;;17.59;33.21
52291;BME280;39663;45.432;28.050;2022-09-24T01:16:38;101359.08;;;17.47;33.05
52291;BME280;39663;45.432;28.050;2022-09-24T01:17:24;101360.83;;;17.46;33.05
52291;BME280;39663;45.432;28.050;2022-09-24T01:18:02;101362.43;;;17.45;33.13
52291;BME280;39663;45.432;28.050;2022-09-24T01:18:40;101360.20;;;17.57;32.99
52291;BME280;39663;45.432;28.050;2022-09-24T01:19:27;101361.10;;;17.62;32.79
52291;BME280;39663;45.432;28.050;2022-09-24T01:20:29;101357.32;;;17.76;32.61
52291;BME280;39663;45.432;28.050;2022-09-24T01:21:16;101357.93;;;18.03;32.23
52291;BME280;39663;45.432;28.050;2022-09-24T01:21:52;101358.19;;;18.18;31.91
52291;BME280;39663;45.432;28.050;2022-09-24T01:22:35;101359.79;;;18.20;31.91
52291;BME280;39663;45.432;28.050;2022-09-24T01:23:23;101357.76;;;18.14;31.85
52291;BME280;39663;45.432;28.050;2022-09-24T01:24:14;101358.34;;;18.16;31.85
52291;BME280;39663;45.432;28.050;2022-09-24T01:24:59;101364.59;;;17.34;32.61
52291;BME280;39663;45.432;28.050;2022-09-24T01:25:39;101358.49;;;17.68;32.54
52291;BME280;39663;45.432;28.050;2022-09-24T01:26:34;101360.06;;;17.81;32.41
52291;BME280;39663;45.432;28.050;2022-09-24T01:27:12;101363.29;;;17.94;32.28
52291;BME280;39663;45.432;28.050;2022-09-24T01:28:00;101366.96;;;17.59;32.65
52291;BME280;39663;45.432;28.050;2022-09-24T01:28:54;101367.32;;;17.02;33.39
52291;BME280;39663;45.432;28.050;2022-09-24T01:29:38;101364.86;;;16.89;33.63
52291;BME280;39663;45.432;28.050;2022-09-24T01:30:13;101365.92;;;17.13;33.70
52291;BME280;39663;45.432;28.050;2022-09-24T01:30:46;101367.13;;;17.01;33.69
52291;BME280;39663;45.432;28.050;2022-09-24T01:31:25;101368.78;;;16.80;33.84
52291;BME280;39663;45.432;28.050;2022-09-24T01:32:05;101368.65;;;16.89;33.87
52291;BME280;39663;45.432;28.050;2022-09-24T01:32:40;101367.92;;;16.60;34.41
52291;BME280;39663;45.432;28.050;2022-09-24T01:33:19;101368.58;;;16.36;34.45
52291;BME280;39663;45.432;28.050;2022-09-24T01:33:54;101367.29;;;16.35;34.47
52291;BME280;39663;45.432;28.050;2022-09-24T01:34:38;101368.09;;;16.39;34.42
52291;BME280;39663;45.432;28.050;2022-09-24T01:35:15;101369.66;;;16.95;34.29
52291;BME280;39663;45.432;28.050;2022-09-24T01:35:52;101368.08;;;16.75;34.14
52291;BME280;39663;45.432;28.050;2022-09-24T01:36:26;101368.62;;;17.12;34.12
52291;BME280;39663;45.432;28.050;2022-09-24T01:37:00;101369.11;;;16.69;34.15
52291;BME280;39663;45.432;28.050;2022-09-24T01:37:34;101365.19;;;17.13;33.97
52291;BME280;39663;45.432;28.050;2022-09-24T01:38:12;101368.87;;;16.75;34.20
52291;BME280;39663;45.432;28.050;2022-09-24T01:38:47;101366.94;;;16.52;34.66
52291;BME280;39663;45.432;28.050;2022-09-24T01:39:20;101366.23;;;16.62;34.73
52291;BME280;39663;45.432;28.050;2022-09-24T01:39:53;101368.30;;;16.68;34.73
52291;BME280;39663;45.432;28.050;2022-09-24T01:40:27;101368.01;;;16.33;34.57
52291;BME280;39663;45.432;28.050;2022-09-24T01:41:02;101368.33;;;16.40;34.75
52291;BME280;39663;45.432;28.050;2022-09-24T01:41:35;101369.12;;;16.44;35.07
52291;BME280;39663;45.432;28.050;2022-09-24T01:42:08;101367.76;;;16.22;34.93
52291;BME280;39663;45.432;28.050;2022-09-24T01:42:42;101367.08;;;16.41;34.75
52291;BME280;39663;45.432;28.050;2022-09-24T01:43:16;101369.38;;;16.76;34.44
52291;BME280;39663;45.432;28.050;2022-09-24T01:43:49;101367.78;;;16.30;34.67
52291;BME280;39663;45.432;28.050;2022-09-24T01:44:20;101368.85;;;16.45;34.59
52291;BME280;39663;45.432;28.050;2022-09-24T01:44:53;101368.31;;;16.96;34.50
52291;BME280;39663;45.432;28.050;2022-09-24T01:45:26;101368.78;;;16.78;34.46
52291;BME280;39663;45.432;28.050;2022-09-24T01:46:00;101369.53;;;16.37;34.59
52291;BME280;39663;45.432;28.050;2022-09-24T01:46:33;101369.84;;;16.43;34.73
52291;BME280;39663;45.432;28.050;2022-09-24T01:47:07;101368.35;;;16.42;34.66
52291;BME280;39663;45.432;28.050;2022-09-24T01:47:40;101370.32;;;16.73;34.17
52291;BME280;39663;45.432;28.050;2022-09-24T01:48:12;101370.96;;;16.73;34.26
52291;BME280;39663;45.432;28.050;2022-09-24T01:48:43;101368.92;;;16.63;34.41
52291;BME280;39663;45.432;28.050;2022-09-24T01:49:15;101368.08;;;16.72;34.35
52291;BME280;39663;45.432;28.050;2022-09-24T01:49:46;101367.93;;;16.75;34.51
52291;BME280;39663;45.432;28.050;2022-09-24T01:50:18;101368.23;;;16.46;34.72
52291;BME280;39663;45.432;28.050;2022-09-24T01:50:54;101369.72;;;16.49;34.89
52291;BME280;39663;45.432;28.050;2022-09-24T01:51:34;101371.02;;;16.38;35.10
52291;BME280;39663;45.432;28.050;2022-09-24T01:52:09;101370.29;;;16.26;35.02
52291;BME280;39663;45.432;28.050;2022-09-24T01:52:47;101370.42;;;16.38;34.86
52291;BME280;39663;45.432;28.050;2022-09-24T01:53:24;101370.78;;;16.90;34.47
52291;BME280;39663;45.432;28.050;2022-09-24T01:54:01;101370.81;;;17.02;33.97
52291;BME280;39663;45.432;28.050;2022-09-24T01:54:36;101369.41;;;17.06;33.61
52291;BME280;39663;45.432;28.050;2022-09-24T01:55:12;101368.21;;;17.40;33.69
52291;BME280;39663;45.432;28.050;2022-09-24T01:55:48;101368.13;;;17.50;33.61
52291;BME280;39663;45.432;28.050;2022-09-24T01:56:24;101370.20;;;17.47;33.34
52291;BME280;39663;45.432;28.050;2022-09-24T01:57:03;101369.89;;;17.69;33.34
52291;BME280;39663;45.432;28.050;2022-09-24T01:57:40;101371.24;;;17.49;33.30
52291;BME280;39663;45.432;28.050;2022-09-24T01:58:19;101369.91;;;17.49;33.20
52291;BME280;39663;45.432;28.050;2022-09-24T01:58:55;101371.09;;;17.26;33.30
52291;BME280;39663;45.432;28.050;2022-09-24T01:59:33;101373.88;;;17.54;33.27
52291;BME280;39663;45.432;28.050;2022-09-24T02:00:11;101373.97;;;17.23;33.54
52291;BME280;39663;45.432;28.050;2022-09-24T02:00:47;101378.19;;;16.75;33.97
52291;BME280;39663;45.432;28.050;2022-09-24T02:01:23;101377.68;;;16.82;34.36
52291;BME280;39663;45.432;28.050;2022-09-24T02:02:03;101377.57;;;16.56;34.49
52291;BME280;39663;45.432;28.050;2022-09-24T02:02:40;101378.02;;;16.68;34.53
52291;BME280;39663;45.432;28.050;2022-09-24T02:03:16;101381.86;;;16.26;34.64
52291;BME280;39663;45.432;28.050;2022-09-24T02:03:54;101382.27;;;16.34;34.86
52291;BME280;39663;45.432;28.050;2022-09-24T02:04:27;101382.81;;;16.50;34.74
52291;BME280;39663;45.432;28.050;2022-09-24T02:05:05;101382.05;;;16.41;34.72
52291;BME280;39663;45.432;28.050;2022-09-24T02:05:41;101384.78;;;16.31;35.02
52291;BME280;39663;45.432;28.050;2022-09-24T02:06:18;101383.97;;;16.40;35.02
52291;BME280;39663;45.432;28.050;2022-09-24T02:06:56;101382.92;;;16.53;34.66
52291;BME280;39663;45.432;28.050;2022-09-24T02:07:34;101385.78;;;16.58;34.81
52291;BME280;39663;45.432;28.050;2022-09-24T02:08:11;101385.50;;;16.55;34.84
52291;BME280;39663;45.432;28.050;2022-09-24T02:08:46;101385.03;;;16.05;34.87
52291;BME280;39663;45.432;28.050;2022-09-24T02:09:35;101383.12;;;16.42;34.88
52291;BME280;39663;45.432;28.050;2022-09-24T02:10:14;101384.62;;;16.38;34.89
52291;BME280;39663;45.432;28.050;2022-09-24T02:10:48;101383.24;;;17.03;34.36
52291;BME280;39663;45.432;28.050;2022-09-24T02:11:22;101381.41;;;17.03;34.00
52291;BME280;39663;45.432;28.050;2022-09-24T02:11:54;101379.60;;;17.22;33.77
52291;BME280;39663;45.432;28.050;2022-09-24T02:12:31;101378.80;;;17.03;33.81
52291;BME280;39663;45.432;28.050;2022-09-24T02:13:07;101381.03;;;17.33;33.88
52291;BME280;39663;45.432;28.050;2022-09-24T02:13:44;101380.93;;;17.05;33.76
52291;BME280;39663;45.432;28.050;2022-09-24T02:14:18;101381.09;;;16.99;33.70
52291;BME280;39663;45.432;28.050;2022-09-24T02:14:53;101380.96;;;17.40;33.73
52291;BME280;39663;45.432;28.050;2022-09-24T02:15:27;101376.44;;;17.48;33.61
52291;BME280;39663;45.432;28.050;2022-09-24T02:16:03;101377.54;;;17.23;33.37
52291;BME280;39663;45.432;28.050;2022-09-24T02:16:36;101380.51;;;17.37;33.33
52291;BME280;39663;45.432;28.050;2022-09-24T02:17:09;101380.41;;;17.58;33.36
52291;BME280;39663;45.432;28.050;2022-09-24T02:17:46;101379.30;;;17.49;33.27
52291;BME280;39663;45.432;28.050;2022-09-24T02:18:22;101380.36;;;17.66;32.98
52291;BME280;39663;45.432;28.050;2022-09-24T02:19:00;101379.23;;;17.82;32.74
52291;BME280;39663;45.432;28.050;2022-09-24T02:19:36;101381.91;;;17.39;32.98
52291;BME280;39663;45.432;28.050;2022-09-24T02:20:12;101383.29;;;17.46;33.29
52291;BME280;39663;45.432;28.050;2022-09-24T02:20:46;101380.56;;;17.30;33.45
52291;BME280;39663;45.432;28.050;2022-09-24T02:21:20;101382.14;;;17.12;33.33
52291;BME280;39663;45.432;28.050;2022-09-24T02:21:54;101379.97;;;17.49;33.28
52291;BME280;39663;45.432;28.050;2022-09-24T02:22:26;101383.74;;;17.70;33.19
52291;BME280;39663;45.432;28.050;2022-09-24T02:22:59;101382.52;;;17.38;33.20
52291;BME280;39663;45.432;28.050;2022-09-24T02:23:33;101384.85;;;17.40;33.17
52291;BME280;39663;45.432;28.050;2022-09-24T02:24:09;101382.65;;;17.79;33.07
52291;BME280;39663;45.432;28.050;2022-09-24T02:24:45;101381.53;;;17.64;33.22
52291;BME280;39663;45.432;28.050;2022-09-24T02:25:21;101385.09;;;17.61;32.98
52291;BME280;39663;45.432;28.050;2022-09-24T02:25:58;101384.16;;;17.64;32.86
52291;BME280;39663;45.432;28.050;2022-09-24T02:26:30;101385.70;;;17.51;32.88
52291;BME280;39663;45.432;28.050;2022-09-24T02:27:01;101384.09;;;17.37;33.25
52291;BME280;39663;45.432;28.050;2022-09-24T02:27:33;101385.72;;;17.21;33.48
52291;BME280;39663;45.432;28.050;2022-09-24T02:28:05;101389.08;;;16.96;33.72
52291;BME280;39663;45.432;28.050;2022-09-24T02:28:36;101388.78;;;16.71;33.92
52291;BME280;39663;45.432;28.050;2022-09-24T02:29:08;101387.45;;;17.03;33.92
52291;BME280;39663;45.432;28.050;2022-09-24T02:29:39;101389.23;;;17.18;33.70
52291;BME280;39663;45.432;28.050;2022-09-24T02:30:11;101391.20;;;16.96;33.63
52291;BME280;39663;45.432;28.050;2022-09-24T02:30:47;101393.09;;;16.87;33.88
52291;BME280;39663;45.432;28.050;2022-09-24T02:31:24;101391.61;;;17.17;33.80
52291;BME280;39663;45.432;28.050;2022-09-24T02:31:58;101391.08;;;17.02;33.81
52291;BME280;39663;45.432;28.050;2022-09-24T02:32:33;101392.19;;;17.26;33.78
52291;BME280;39663;45.432;28.050;2022-09-24T02:33:07;101389.89;;;17.16;33.54
52291;BME280;39663;45.432;28.050;2022-09-24T02:33:43;101388.50;;;17.32;33.42
52291;BME280;39663;45.432;28.050;2022-09-24T02:34:19;101389.67;;;17.45;33.33
52291;BME280;39663;45.432;28.050;2022-09-24T02:34:54;101389.30;;;17.57;33.25
52291;BME280;39663;45.432;28.050;2022-09-24T02:35:26;101391.26;;;17.19;33.36
52291;BME280;39663;45.432;28.050;2022-09-24T02:35:58;101393.13;;;17.54;33.09
52291;BME280;39663;45.432;28.050;2022-09-24T02:36:30;101394.31;;;17.82;33.14
52291;BME280;39663;45.432;28.050;2022-09-24T02:37:06;101393.03;;;17.34;33.16
52291;BME280;39663;45.432;28.050;2022-09-24T02:37:40;101392.73;;;17.10;33.47
52291;BME280;39663;45.432;28.050;2022-09-24T02:38:15;101392.21;;;17.22;33.33
52291;BME280;39663;45.432;28.050;2022-09-24T02:38:46;101393.47;;;17.46;33.27
52291;BME280;39663;45.432;28.050;2022-09-24T02:39:19;101394.84;;;17.24;33.34
52291;BME280;39663;45.432;28.050;2022-09-24T02:39:50;101393.72;;;17.27;33.32
52291;BME280;39663;45.432;28.050;2022-09-24T02:40:22;101394.20;;;17.41;33.35
52291;BME280;39663;45.432;28.050;2022-09-24T02:40:53;101396.54;;;17.61;33.13
52291;BME280;39663;45.432;28.050;2022-09-24T02:41:26;101394.53;;;17.88;32.89
52291;BME280;39663;45.432;28.050;2022-09-24T02:41:58;101394.80;;;17.75;32.80
52291;BME280;39663;45.432;28.050;2022-09-24T02:42:31;101394.24;;;17.75;32.58
52291;BME280;39663;45.432;28.050;2022-09-24T02:43:03;101396.97;;;17.70;32.64
52291;BME280;39663;45.432;28.050;2022-09-24T02:43:34;101396.27;;;17.77;32.56
52291;BME280;39663;45.432;28.050;2022-09-24T02:44:05;101398.03;;;17.97;32.82
52291;BME280;39663;45.432;28.050;2022-09-24T02:44:37;101396.98;;;17.66;32.76
52291;BME280;39663;45.432;28.050;2022-09-24T02:45:09;101396.26;;;18.00;32.77
52291;BME280;39663;45.432;28.050;2022-09-24T02:45:41;101398.88;;;18.08;32.42
52291;BME280;39663;45.432;28.050;2022-09-24T02:46:12;101397.99;;;17.91;32.37
52291;BME280;39663;45.432;28.050;2022-09-24T02:46:44;101398.96;;;17.97;32.29
52291;BME280;39663;45.432;28.050;2022-09-24T02:47:16;101399.18;;;17.89;32.36
52291;BME280;39663;45.432;28.050;2022-09-24T02:47:47;101398.12;;;17.72;32.55
52291;BME280;39663;45.432;28.050;2022-09-24T02:48:18;101400.13;;;17.74;32.59
52291;BME280;39663;45.432;28.050;2022-09-24T02:48:50;101398.48;;;17.69;32.87
52291;BME280;39663;45.432;28.050;2022-09-24T02:49:21;101399.00;;;17.40;33.01
52291;BME280;39663;45.432;28.050;2022-09-24T02:49:53;101398.64;;;17.19;33.00
52291;BME280;39663;45.432;28.050;2022-09-24T02:50:24;101399.49;;;17.44;32.97
52291;BME280;39663;45.432;28.050;2022-09-24T02:50:56;101399.92;;;17.54;33.10
52291;BME280;39663;45.432;28.050;2022-09-24T02:51:27;101397.90;;;17.28;33.36
52291;BME280;39663;45.432;28.050;2022-09-24T02:51:59;101396.78;;;17.50;33.30
52291;BME280;39663;45.432;28.050;2022-09-24T02:52:30;101399.10;;;17.30;33.46
52291;BME280;39663;45.432;28.050;2022-09-24T02:53:02;101400.29;;;17.01;33.62
52291;BME280;39663;45.432;28.050;2022-09-24T02:53:33;101398.27;;;17.18;33.65
52291;BME280;39663;45.432;28.050;2022-09-24T02:54:05;101398.65;;;17.01;33.59
52291;BME280;39663;45.432;28.050;2022-09-24T02:54:37;101398.19;;;17.15;33.65
52291;BME280;39663;45.432;28.050;2022-09-24T02:55:08;101399.00;;;17.42;33.69
52291;BME280;39663;45.432;28.050;2022-09-24T02:55:40;101399.80;;;16.93;33.87
52291;BME280;39663;45.432;28.050;2022-09-24T02:56:11;101401.69;;;17.12;34.04
52291;BME280;39663;45.432;28.050;2022-09-24T02:56:43;101400.11;;;16.41;34.61
52291;BME280;39663;45.432;28.050;2022-09-24T02:57:14;101400.47;;;16.29;34.98
52291;BME280;39663;45.432;28.050;2022-09-24T02:57:46;101399.21;;;16.24;35.05
52291;BME280;39663;45.432;28.050;2022-09-24T02:58:17;101400.35;;;16.15;35.09
52291;BME280;39663;45.432;28.050;2022-09-24T02:58:48;101399.48;;;16.30;35.11
52291;BME280;39663;45.432;28.050;2022-09-24T02:59:19;101401.73;;;16.25;34.97
52291;BME280;39663;45.432;28.050;2022-09-24T02:59:51;101400.54;;;16.13;34.86
52291;BME280;39663;45.432;28.050;2022-09-24T03:00:22;101401.09;;;16.62;34.85
52291;BME280;39663;45.432;28.050;2022-09-24T03:00:54;101398.78;;;16.25;34.97
52291;BME280;39663;45.432;28.050;2022-09-24T03:01:25;101398.72;;;16.12;35.13
52291;BME280;39663;45.432;28.050;2022-09-24T03:01:57;101399.77;;;16.27;35.12
52291;BME280;39663;45.432;28.050;2022-09-24T03:02:28;101400.61;;;16.25;35.19
52291;BME280;39663;45.432;28.050;2022-09-24T03:02:59;101402.04;;;16.14;35.32
52291;BME280;39663;45.432;28.050;2022-09-24T03:03:31;101401.46;;;15.90;35.39
52291;BME280;39663;45.432;28.050;2022-09-24T03:04:03;101405.12;;;15.73;35.67
52291;BME280;39663;45.432;28.050;2022-09-24T03:04:35;101405.94;;;15.79;35.81
52291;BME280;39663;45.432;28.050;2022-09-24T03:05:07;101404.62;;;15.77;35.80
52291;BME280;39663;45.432;28.050;2022-09-24T03:05:38;101407.03;;;15.96;35.64
52291;BME280;39663;45.432;28.050;2022-09-24T03:06:10;101404.48;;;16.13;35.39
52291;BME280;39663;45.432;28.050;2022-09-24T03:06:41;101407.54;;;16.14;35.44
52291;BME280;39663;45.432;28.050;2022-09-24T03:07:13;101404.76;;;16.48;35.29